Airfield :
LOGIN :

Register | Disclaimer

   EN    FR    IT 

 










Legend :    VFR   Marginal VFR   IFR   Intensive IFR   Very Intensive IFR
Visi :
Ceiling :
>= 8 km
>= 3000ft
5 to 8 km
1000 to 3000 ft
1500m to 5 km
500 to 1000 ft
800 to 1500m
200 to 500 ft
< 800m
< 200 ft
Symbols :   Thunderstorms  Fog  Heavy snow  Heavy precipitations  Wind > 20 kt
SIGMETs :     Misc.  Thunderstorms  Icing  Turbulence  Mountain Waves  Volcanic Ashes






- Airport Elevation : 614 ft
- IATA code : CRL


EBCI - Charleroi

CURRENT METAR :
  • 280350Z 19007KT CAVOK 10/08 Q1023 NOSIG

EXPIRED METARs :
  • 280320Z 20005KT CAVOK 10/08 Q1023 NOSIG
  • 280250Z 20009KT CAVOK 10/08 Q1023 NOSIG
  • 280220Z 20007KT CAVOK 10/08 Q1023 NOSIG
  • 280150Z 21008KT CAVOK 11/08 Q1023 NOSIG
  • 280120Z 20007KT CAVOK 11/08 Q1023 NOSIG

TAF TAF EBCI
Valid from the 28 at 00:00 until the 29 at 06:00 UTC


272310Z 2800/2906 19006KT CAVOK
TEMPO 2902/2906 22017G27KT 3000 RA SHRA SCT008 BKN012TCU



MET'MAP, your aeronautical weather chart ! - Copyright ORBIFLY December 2007 - Disclaimer

ORBIFLY MET'MAP TEAM :

Programming & Development : Alexandra Zaïnal
Concept & original design : Baudouin d'Aumeries
Assistance for programming : Marc-Olivier Méhu
Technical & hardware support : Manuel Goepfert

Contact : metmap@orbifly.com




SOURCES & CREDITS :

   NOAA